createdAt,value
2019-03-08T01:10:42.335Z,27.90
2019-03-08T01:13:13.008Z,28.00
2019-03-08T01:15:43.752Z,28.10
2019-03-08T01:18:14.388Z,28.10
2019-03-08T01:20:45.234Z,28.20
2019-03-08T01:23:15.946Z,28.30
2019-03-08T01:25:46.338Z,28.30
2019-03-08T01:28:16.886Z,28.30
2019-03-08T01:30:47.466Z,28.30
2019-03-08T01:33:18.866Z,28.40
2019-03-08T01:35:49.606Z,28.40
2019-03-08T01:38:19.990Z,28.40
2019-03-08T01:40:50.626Z,28.50
2019-03-08T01:43:21.416Z,28.50
2019-03-08T01:46:12.508Z,28.60
2019-03-08T01:49:03.509Z,28.60
2019-03-08T01:51:35.671Z,28.70
2019-03-08T01:54:06.598Z,28.80
2019-03-08T01:56:36.989Z,28.80
2019-03-08T01:59:07.555Z,28.90
2019-03-08T02:01:38.555Z,29.00
2019-03-08T02:04:09.641Z,29.00
2019-03-08T02:09:30.737Z,29.10
2019-03-08T02:12:01.368Z,29.20
2019-03-08T02:14:32.122Z,29.20
2019-03-08T02:17:03.318Z,29.30
2019-03-08T02:19:33.977Z,29.30
2019-03-08T02:22:04.711Z,29.40
2019-03-08T02:24:35.910Z,29.40
2019-03-08T02:27:06.746Z,29.40
2019-03-08T02:29:39.116Z,29.50
2019-03-08T02:32:09.546Z,29.40
2019-03-08T02:34:40.334Z,29.50
2019-03-08T02:37:10.938Z,29.40
2019-03-08T02:39:41.875Z,29.50
2019-03-08T02:42:12.535Z,29.40
2019-03-08T02:44:44.222Z,29.40
2019-03-08T02:47:15.050Z,29.40
2019-03-08T02:49:45.693Z,29.50
2019-03-08T02:52:16.439Z,29.60
2019-03-08T02:54:47.270Z,29.50
2019-03-08T02:57:17.883Z,29.50
2019-03-08T02:59:48.383Z,29.60
2019-03-08T03:02:19.194Z,29.60
2019-03-08T03:04:49.998Z,29.70
2019-03-08T03:07:20.714Z,29.70
2019-03-08T03:09:51.602Z,29.70
2019-03-08T03:12:21.986Z,29.70
2019-03-08T03:14:52.382Z,29.60
2019-03-08T03:17:23.292Z,29.70
2019-03-08T03:19:54.502Z,29.60
2019-03-08T03:22:24.910Z,29.70
2019-03-08T03:24:55.555Z,29.80
2019-03-08T03:27:29.005Z,29.90
2019-03-08T03:29:59.568Z,30.00
2019-03-08T03:32:30.883Z,30.10
2019-03-08T03:35:01.535Z,30.10
2019-03-08T03:37:32.288Z,30.20
2019-03-08T03:40:04.271Z,30.30
2019-03-08T03:53:16.977Z,30.50
2019-03-08T04:05:37.267Z,30.80
2019-03-08T04:08:07.828Z,30.90
2019-03-08T04:10:38.264Z,30.90
2019-03-08T04:13:08.730Z,30.90
2019-03-08T04:15:39.285Z,31.00
2019-03-08T04:18:09.677Z,31.10
2019-03-08T04:20:40.623Z,31.10
2019-03-08T04:23:11.174Z,31.30
2019-03-08T04:25:41.886Z,31.40
2019-03-08T04:28:12.694Z,31.40
2019-03-08T04:33:19.850Z,31.40
2019-03-08T04:35:50.676Z,31.40
2019-03-08T04:38:21.849Z,31.50
2019-03-08T04:40:52.571Z,31.60
2019-03-08T04:43:23.455Z,31.60
2019-03-08T04:45:54.103Z,31.70
2019-03-08T04:48:24.714Z,31.80
2019-03-08T04:50:55.275Z,31.90
2019-03-08T04:53:25.678Z,31.90
2019-03-08T04:55:56.405Z,32.00
2019-03-08T04:58:27.330Z,32.00
2019-03-08T05:00:58.064Z,32.10
2019-03-08T05:03:28.456Z,32.30
2019-03-08T05:06:00.761Z,32.30
2019-03-08T05:08:31.672Z,32.30
2019-03-08T05:11:02.066Z,32.30
2019-03-08T05:13:32.626Z,32.20
2019-03-08T05:16:03.678Z,32.20
2019-03-08T05:18:34.058Z,32.30
2019-03-08T05:21:04.852Z,32.30
2019-03-08T05:23:35.662Z,32.40
2019-03-08T05:26:06.048Z,32.40
2019-03-08T05:28:43.460Z,32.50
2019-03-08T05:31:14.219Z,32.50
2019-03-08T05:33:44.773Z,32.60
2019-03-08T05:36:15.266Z,32.60
2019-03-08T05:38:45.643Z,32.70
2019-03-08T05:41:17.643Z,32.80
2019-03-08T05:43:48.837Z,32.70
2019-03-08T05:46:19.321Z,32.80
2019-03-08T05:48:50.201Z,32.80
2019-03-08T05:51:20.684Z,32.80
2019-03-08T05:53:51.471Z,32.80
2019-03-08T05:56:22.022Z,32.80
2019-03-08T05:58:52.417Z,32.80
2019-03-08T06:01:22.795Z,32.80
2019-03-08T06:03:53.444Z,32.80
2019-03-08T06:06:26.039Z,32.80
2019-03-08T06:08:56.205Z,32.90
2019-03-08T06:11:26.587Z,32.90
2019-03-08T06:13:56.989Z,33.00
2019-03-08T06:16:27.820Z,33.10
2019-03-08T06:18:58.466Z,33.00
2019-03-08T06:21:29.180Z,33.10
2019-03-08T06:26:49.506Z,33.00
2019-03-08T06:29:20.181Z,33.00
2019-03-08T06:31:50.850Z,33.00
2019-03-08T06:34:24.585Z,33.00
2019-03-08T06:36:55.358Z,33.00
2019-03-08T06:39:26.173Z,32.80
2019-03-08T06:41:56.970Z,32.80
2019-03-08T06:44:27.726Z,32.90
2019-03-08T06:46:58.463Z,32.90
2019-03-08T06:49:29.355Z,33.10
2019-03-08T06:52:01.000Z,33.10
2019-03-08T06:54:31.766Z,33.20
2019-03-08T06:57:02.645Z,33.20
2019-03-08T06:59:35.027Z,33.20
2019-03-08T07:02:05.639Z,33.20
2019-03-08T07:04:36.617Z,33.30
2019-03-08T07:07:07.285Z,33.30
2019-03-08T07:09:37.882Z,33.40
2019-03-08T07:12:08.450Z,33.40
2019-03-08T07:14:38.834Z,33.50
2019-03-08T07:17:10.011Z,33.50
2019-03-08T07:19:41.934Z,33.70
2019-03-08T07:22:14.100Z,33.70
2019-03-08T07:24:52.007Z,33.80
2019-03-08T07:27:23.874Z,33.80
2019-03-08T07:30:03.125Z,33.90
2019-03-08T07:32:37.526Z,33.90
2019-03-08T07:35:16.003Z,34.00
2019-03-08T07:37:47.881Z,34.00
2019-03-08T07:40:23.243Z,34.00
2019-03-08T07:42:57.514Z,34.10
2019-03-08T07:45:35.322Z,34.00
2019-03-08T07:48:12.928Z,34.00
2019-03-08T07:50:46.890Z,34.00
2019-03-08T07:53:33.228Z,34.10
2019-03-08T07:56:08.083Z,34.20
2019-03-08T07:58:56.207Z,34.20
2019-03-08T08:01:28.234Z,34.20
2019-03-08T08:04:00.892Z,34.10
2019-03-08T08:06:39.972Z,34.20
2019-03-08T08:09:14.155Z,34.20
2019-03-08T08:11:51.997Z,34.30
2019-03-08T08:14:39.993Z,34.30
2019-03-08T08:17:14.646Z,34.40
2019-03-08T08:19:49.478Z,34.40
2019-03-08T08:22:24.343Z,34.30
2019-03-08T08:24:56.211Z,34.40
2019-03-08T08:27:31.313Z,34.30
2019-03-08T08:30:05.186Z,34.30
2019-03-08T08:32:52.826Z,34.40
2019-03-08T08:35:41.555Z,34.30
2019-03-08T08:38:13.482Z,34.30
2019-03-08T08:40:57.281Z,34.30
2019-03-08T08:43:38.195Z,34.30
2019-03-08T08:46:12.518Z,34.30
2019-03-08T08:48:58.288Z,34.30
2019-03-08T08:51:33.494Z,34.20
2019-03-08T08:54:05.491Z,34.20
2019-03-08T08:56:53.383Z,34.30
2019-03-08T08:59:28.557Z,34.30
2019-03-08T09:02:00.690Z,34.30
2019-03-08T09:04:48.962Z,34.30
2019-03-08T09:07:26.808Z,34.40
2019-03-08T09:09:58.827Z,34.30
2019-03-08T09:12:40.873Z,34.30
2019-03-08T09:15:22.251Z,34.30
2019-03-08T09:17:54.018Z,34.30
2019-03-08T09:20:29.032Z,34.20
2019-03-08T09:23:07.282Z,34.20
2019-03-08T09:25:48.430Z,34.00
2019-03-08T09:28:22.709Z,33.90
2019-03-08T09:31:00.694Z,34.00
2019-03-08T09:33:33.012Z,33.90
2019-03-08T09:36:21.631Z,33.80
2019-03-08T09:39:10.004Z,33.70
2019-03-08T09:42:00.703Z,33.60
2019-03-08T09:44:42.059Z,33.50
2019-03-08T09:47:14.395Z,33.50
2019-03-08T09:49:49.659Z,33.40
2019-03-08T09:52:24.639Z,33.40
2019-03-08T09:55:03.010Z,33.30
2019-03-08T09:57:35.734Z,33.30
2019-03-08T10:00:25.560Z,33.30
2019-03-08T10:02:59.690Z,33.30
2019-03-08T10:05:40.725Z,33.20
2019-03-08T10:08:29.957Z,33.10
2019-03-08T10:11:07.960Z,33.10
2019-03-08T10:13:48.945Z,33.10
2019-03-08T10:16:27.441Z,33.00
2019-03-08T10:19:09.023Z,33.00
2019-03-08T10:21:57.506Z,33.00
2019-03-08T10:24:32.334Z,32.90
2019-03-08T10:27:16.310Z,32.80
2019-03-08T10:30:04.867Z,32.70
2019-03-08T10:32:52.746Z,32.70
2019-03-08T10:35:37.556Z,32.70
2019-03-08T10:38:10.051Z,32.70
2019-03-08T10:40:42.423Z,32.60
2019-03-08T10:43:17.664Z,32.40
2019-03-08T10:45:49.972Z,32.40
2019-03-08T10:48:31.591Z,32.40
2019-03-08T10:51:09.249Z,32.30
2019-03-08T10:53:41.002Z,32.20
2019-03-08T10:56:12.930Z,32.20
2019-03-08T10:58:50.558Z,32.20
2019-03-08T11:01:34.258Z,32.00
2019-03-08T11:04:06.189Z,31.90
2019-03-08T11:06:54.035Z,31.80
2019-03-08T11:09:28.854Z,31.90
2019-03-08T11:12:10.261Z,31.70
2019-03-08T11:14:42.171Z,31.70
2019-03-08T11:17:19.714Z,31.60
2019-03-08T11:20:01.179Z,31.60
2019-03-08T11:22:37.394Z,31.50
2019-03-08T11:25:34.551Z,31.40
2019-03-08T11:27:59.414Z,31.40
2019-03-08T11:30:34.500Z,31.30
2019-03-08T11:33:15.838Z,31.30
2019-03-08T11:36:07.101Z,31.20
2019-03-08T11:38:42.510Z,31.20
2019-03-08T11:41:14.628Z,31.10
2019-03-08T11:43:49.548Z,31.10
2019-03-08T11:55:29.231Z,30.90
2019-03-08T11:58:05.402Z,30.90
2019-03-08T12:00:37.479Z,30.80
2019-03-08T12:03:27.741Z,30.90
2019-03-08T12:06:01.069Z,30.80
2019-03-08T12:08:45.619Z,30.70
2019-03-08T12:11:28.190Z,30.70
2019-03-08T12:14:00.307Z,30.60
2019-03-08T12:16:41.486Z,30.50
2019-03-08T12:19:16.735Z,30.50
2019-03-08T12:21:49.502Z,30.50
2019-03-08T12:24:24.739Z,30.40
2019-03-08T12:27:00.117Z,30.40
2019-03-08T12:29:32.194Z,30.40
2019-03-08T12:32:13.345Z,30.40
2019-03-08T12:34:45.176Z,30.30
2019-03-08T12:37:23.818Z,30.30
2019-03-08T12:40:07.851Z,30.30
2019-03-08T12:42:40.205Z,30.30
2019-03-08T12:45:13.457Z,30.20
2019-03-08T12:47:51.318Z,30.20
2019-03-08T12:50:23.074Z,30.20
2019-03-08T12:53:01.279Z,30.10
2019-03-08T12:55:35.286Z,30.10
2019-03-08T12:58:10.221Z,30.00
2019-03-08T13:00:42.080Z,30.00
2019-03-08T13:03:20.174Z,30.00
2019-03-08T13:06:10.473Z,30.00
2019-03-08T13:08:51.318Z,30.00
2019-03-08T13:11:23.120Z,30.00
2019-03-08T13:13:55.469Z,30.00
2019-03-08T14:08:59.986Z,29.50
2019-03-08T14:11:36.960Z,29.50
2019-03-08T14:14:07.727Z,29.50
2019-03-08T14:16:38.415Z,29.50
2019-03-08T14:19:09.688Z,29.50
2019-03-08T14:21:41.550Z,29.50
2019-03-08T14:24:13.222Z,29.50
2019-03-08T14:26:43.646Z,29.50
2019-03-08T14:29:14.228Z,29.50
2019-03-08T14:31:49.314Z,29.50
2019-03-08T14:34:18.824Z,29.40
2019-03-08T14:36:52.260Z,29.40
2019-03-08T14:39:23.839Z,29.40
2019-03-08T14:41:56.772Z,29.40
2019-03-08T14:44:35.741Z,29.50
2019-03-08T14:47:08.060Z,29.50
2019-03-08T14:49:38.852Z,29.40
2019-03-08T14:52:10.494Z,29.40
2019-03-08T14:54:42.435Z,29.40
2019-03-08T14:57:26.349Z,29.40
2019-03-08T14:59:49.305Z,29.40
2019-03-08T15:02:20.285Z,29.30
2019-03-08T15:04:51.536Z,29.30
2019-03-08T15:07:22.387Z,29.20
2019-03-08T15:09:53.127Z,29.20
2019-03-08T15:12:23.793Z,29.20
2019-03-08T15:14:54.764Z,29.20
2019-03-08T15:17:25.569Z,29.20
2019-03-08T15:19:56.153Z,29.10
2019-03-08T15:22:26.951Z,29.20
2019-03-08T15:24:57.683Z,29.10
2019-03-08T15:27:28.278Z,29.10
2019-03-08T15:29:58.696Z,29.10
2019-03-08T15:32:29.473Z,29.10
2019-03-08T15:35:00.372Z,29.10
2019-03-08T15:37:32.281Z,29.10
2019-03-08T15:40:03.221Z,29.00
2019-03-08T15:42:43.935Z,29.00
2019-03-08T15:45:15.275Z,29.00
2019-03-08T15:47:46.374Z,28.90
2019-03-08T15:50:26.420Z,28.90
2019-03-08T15:52:57.167Z,28.90
2019-03-08T15:55:29.035Z,28.90
2019-03-08T15:58:01.513Z,28.90
2019-03-08T16:00:34.336Z,28.90
2019-03-08T16:03:05.160Z,28.90
2019-03-08T16:05:35.837Z,28.90
2019-03-08T16:08:06.622Z,28.80
2019-03-08T16:10:37.222Z,28.80
2019-03-08T16:13:08.133Z,28.70
2019-03-08T16:15:38.809Z,28.70
2019-03-08T16:18:09.530Z,28.70
2019-03-08T16:20:40.722Z,28.60
2019-03-08T16:29:06.082Z,28.70
2019-03-08T16:31:39.387Z,28.70
2019-03-08T16:34:11.186Z,28.70
2019-03-08T16:36:43.865Z,28.60
2019-03-08T16:39:17.998Z,28.70
2019-03-08T16:41:52.696Z,28.60
2019-03-08T16:44:39.599Z,28.70
2019-03-08T16:47:13.779Z,28.70
2019-03-08T16:50:06.448Z,28.70
2019-03-08T16:52:39.662Z,28.60
2019-03-08T16:55:24.644Z,28.60
2019-03-08T16:57:56.818Z,28.60
2019-03-08T17:00:28.798Z,28.70
2019-03-08T17:06:10.756Z,28.60
2019-03-08T17:11:44.327Z,28.60
2019-03-08T17:14:17.583Z,28.50
2019-03-08T17:17:01.502Z,28.50
2019-03-08T17:19:35.693Z,28.50
2019-03-08T17:22:13.849Z,28.50
2019-03-08T17:24:53.832Z,28.50
2019-03-08T17:27:31.990Z,28.50
2019-03-08T17:30:14.167Z,28.40
2019-03-08T17:32:52.050Z,28.50
2019-03-08T17:35:41.494Z,28.40
2019-03-08T17:38:21.077Z,28.50
2019-03-08T17:41:12.475Z,28.50
2019-03-08T17:43:49.628Z,28.40
2019-03-08T17:46:42.089Z,28.40
2019-03-08T17:49:17.776Z,28.40
2019-03-08T18:01:50.561Z,28.40
2019-03-08T18:04:22.483Z,28.40
2019-03-08T18:07:02.587Z,28.40
2019-03-08T18:09:35.867Z,28.40
2019-03-08T18:12:08.159Z,28.40
2019-03-08T18:14:56.640Z,28.30
2019-03-08T18:20:38.037Z,28.30
2019-03-08T18:23:18.782Z,28.30
2019-03-08T18:25:51.239Z,28.30
2019-03-08T18:28:41.455Z,28.30
2019-03-08T18:31:29.948Z,28.30
2019-03-08T18:34:04.769Z,28.30
2019-03-08T18:36:55.423Z,28.30
2019-03-08T18:39:43.517Z,28.30
2019-03-08T18:42:33.449Z,28.30
2019-03-08T18:45:11.394Z,28.30
2019-03-08T18:47:45.714Z,28.30
2019-03-08T18:50:27.509Z,28.30
2019-03-08T18:53:05.765Z,28.20
2019-03-08T18:55:37.588Z,28.20
2019-03-08T18:58:12.295Z,28.10
2019-03-08T19:00:46.982Z,28.20
2019-03-08T19:03:27.050Z,28.20
2019-03-08T19:06:02.958Z,28.20
2019-03-08T19:08:35.263Z,28.10
2019-03-08T19:11:22.095Z,28.20
2019-03-08T19:14:10.933Z,28.20
2019-03-08T19:16:55.290Z,28.10
2019-03-08T19:19:40.145Z,28.10
2019-03-08T19:22:45.542Z,28.10
2019-03-08T19:25:33.846Z,28.10
2019-03-08T19:28:10.024Z,28.10
2019-03-08T19:30:47.549Z,28.20
2019-03-08T19:33:19.607Z,28.10
2019-03-08T19:35:57.129Z,28.20
2019-03-08T19:38:32.148Z,28.10
2019-03-08T19:41:13.234Z,28.00
2019-03-08T19:43:54.466Z,28.10
2019-03-08T19:46:29.881Z,28.00
2019-03-08T19:49:08.148Z,28.00
2019-03-08T19:51:44.488Z,28.00
2019-03-08T19:54:22.378Z,28.10
2019-03-08T19:57:06.362Z,28.00
2019-03-08T19:59:40.638Z,28.10
2019-03-08T20:02:12.953Z,28.20
2019-03-08T20:04:51.048Z,28.10
2019-03-08T20:07:22.969Z,28.10
2019-03-08T20:10:00.463Z,28.00
2019-03-08T20:12:32.509Z,28.00
2019-03-08T20:15:13.717Z,28.10
2019-03-08T20:17:49.562Z,28.10
2019-03-08T20:20:28.675Z,28.10
2019-03-08T20:23:01.657Z,28.00
2019-03-08T20:25:33.858Z,28.00
2019-03-08T20:28:15.144Z,28.10
2019-03-08T20:30:51.778Z,28.00
2019-03-08T20:33:24.206Z,28.00
2019-03-08T20:36:08.541Z,28.00
2019-03-08T20:38:43.913Z,28.00
2019-03-08T20:41:15.985Z,28.00
2019-03-08T20:43:48.013Z,28.00
2019-03-08T20:46:43.582Z,28.00
2019-03-08T20:49:16.180Z,27.90
2019-03-08T20:51:46.975Z,28.00
2019-03-08T20:54:17.964Z,28.00
2019-03-08T20:56:48.684Z,28.00
2019-03-08T20:59:19.242Z,28.00
2019-03-08T21:01:49.977Z,27.90
2019-03-08T21:04:20.368Z,27.90
2019-03-08T21:06:51.335Z,27.90
2019-03-08T21:09:22.310Z,27.90
2019-03-08T21:11:53.122Z,27.90
2019-03-08T21:14:24.047Z,27.80
2019-03-08T21:16:54.707Z,27.90
2019-03-08T21:19:25.418Z,27.90
2019-03-08T21:21:56.166Z,28.00
2019-03-08T21:24:26.878Z,27.90
2019-03-08T21:26:57.496Z,28.00
2019-03-08T21:29:28.286Z,27.90
2019-03-08T21:31:58.838Z,27.90
2019-03-08T21:34:29.497Z,27.80
2019-03-08T21:37:01.579Z,27.80
2019-03-08T21:39:32.258Z,27.90
2019-03-08T21:42:03.159Z,27.90
2019-03-08T21:44:34.197Z,27.90
2019-03-08T21:47:04.852Z,27.90
2019-03-08T21:49:39.269Z,27.80
2019-03-08T21:52:29.550Z,27.80
2019-03-08T21:55:00.787Z,27.70
2019-03-08T21:57:31.427Z,27.70
2019-03-08T22:02:51.547Z,27.70
2019-03-08T22:05:25.065Z,27.70
2019-03-08T22:07:55.893Z,27.80
2019-03-08T22:10:37.111Z,27.80
2019-03-08T22:13:07.997Z,27.70
2019-03-08T22:15:38.926Z,27.70
2019-03-08T22:18:09.666Z,27.70
2019-03-08T22:20:40.744Z,27.70
2019-03-08T22:23:31.851Z,27.70
2019-03-08T22:26:02.999Z,27.70
2019-03-08T22:28:33.767Z,27.70
2019-03-08T22:31:04.698Z,27.70
2019-03-08T22:33:35.644Z,27.70
2019-03-08T22:36:10.089Z,27.60
2019-03-08T22:38:40.957Z,27.60
2019-03-08T22:41:11.335Z,27.60
2019-03-08T22:43:42.050Z,27.60
2019-03-08T22:46:12.606Z,27.70
2019-03-08T22:48:43.792Z,27.70
2019-03-08T22:51:15.766Z,27.70
2019-03-08T22:53:47.228Z,27.70
2019-03-08T22:56:17.960Z,27.70
2019-03-08T22:58:48.515Z,27.60
2019-03-08T23:01:22.042Z,27.60
2019-03-08T23:03:53.651Z,27.60
2019-03-08T23:06:24.283Z,27.60
2019-03-08T23:08:55.036Z,27.60
2019-03-08T23:11:26.260Z,27.60
2019-03-08T23:13:57.322Z,27.60
2019-03-08T23:16:27.907Z,27.70
2019-03-08T23:18:59.134Z,27.60
2019-03-08T23:21:30.191Z,27.60
2019-03-08T23:24:02.855Z,27.60
2019-03-08T23:26:36.434Z,27.60
2019-03-08T23:29:12.335Z,27.50
2019-03-08T23:31:43.003Z,27.60
2019-03-08T23:34:15.210Z,27.60
2019-03-08T23:36:45.763Z,27.60
2019-03-08T23:39:16.246Z,27.60
2019-03-08T23:41:48.112Z,27.60
2019-03-08T23:44:19.216Z,27.60
2019-03-08T23:46:49.601Z,27.50
2019-03-08T23:49:20.286Z,27.60
2019-03-08T23:51:53.303Z,27.60
2019-03-08T23:54:23.699Z,27.50
2019-03-08T23:56:54.407Z,27.50
2019-03-08T23:59:24.955Z,27.50
